Time;durP1;ratioP1;P1;durP2;ratioP2;P2;SDS_P1;SDS_P2;PMS_P1;PMS_P2;Temp;Humidity;BMP_temperature;BMP_pressure;BME280_temperature;BME280_humidity;BME280_pressure;Samples;Min_cycle;Max_cycle;Signal;HPM_P1;HPM_P2
2022/01/22 00:01:17;;;;;;;2.50;2.30;;;-0.90;72.90;;;-1.28;54.00;95242.72;5008348;28;20925;-55
2022/01/22 00:03:45;;;;;;;13.97;3.00;;;-0.90;72.60;;;-1.26;54.16;95238.31;5009695;28;20458;-56
2022/01/22 00:06:12;;;;;;;6.20;2.90;;;-0.90;73.00;;;-1.24;54.49;95235.69;5009379;28;20541;-57
2022/01/22 00:08:41;;;;;;;3.57;2.80;;;-0.90;72.70;;;-1.21;54.00;95230.41;5010373;28;20457;-56
2022/01/22 00:11:08;;;;;;;2.37;2.17;;;-0.80;73.10;;;-1.18;54.42;95228.53;5007516;28;21026;-56
2022/01/22 00:16:20;;;;;;;4.60;2.57;;;-0.80;72.40;;;-1.13;53.79;95228.34;5006644;28;20445;-57
2022/01/22 00:18:47;;;;;;;7.17;2.30;;;-0.80;72.40;;;-1.10;53.48;95229.09;5009419;28;20519;-56
2022/01/22 00:21:14;;;;;;;10.93;3.60;;;-0.70;72.50;;;-1.08;53.62;95227.28;5009432;28;20565;-57
2022/01/22 00:23:48;;;;;;;4.07;2.43;;;-0.70;72.50;;;-1.06;53.92;95229.81;5009449;28;20465;-56
2022/01/22 00:26:15;;;;;;;10.80;3.27;;;-0.70;72.50;;;-1.05;53.84;95226.31;5009271;28;20477;-55
2022/01/22 00:28:43;;;;;;;3.47;2.57;;;-0.70;73.00;;;-1.03;53.79;95223.69;5008925;28;20449;-56
2022/01/22 00:31:10;;;;;;;5.20;3.80;;;-0.60;72.50;;;-1.02;53.94;95225.34;5008771;28;20469;-56
2022/01/22 00:33:38;;;;;;;9.57;3.93;;;-0.70;72.10;;;-1.00;54.34;95226.16;5005970;28;20604;-56
2022/01/22 00:36:05;;;;;;;4.17;2.90;;;-0.60;72.60;;;-1.00;53.75;95224.41;5006332;28;20477;-57
2022/01/22 00:38:32;;;;;;;3.77;3.30;;;-0.60;72.10;;;-1.00;53.95;95237.31;5006348;28;20456;-55
2022/01/22 00:41:01;;;;;;;6.53;3.23;;;-0.60;72.60;;;-1.00;54.18;95234.72;5008613;28;20565;-57
2022/01/22 00:43:28;;;;;;;4.43;3.40;;;-0.70;72.50;;;-0.99;53.95;95235.56;5007241;28;20468;-55
2022/01/22 00:45:56;;;;;;;4.37;3.07;;;-0.60;72.30;;;-0.99;53.74;95231.25;5008135;28;20478;-58
2022/01/22 00:48:23;;;;;;;3.37;3.00;;;-0.60;72.30;;;-0.98;53.63;95232.06;5008133;28;20465;-55
2022/01/22 00:50:54;;;;;;;4.97;3.20;;;-0.60;71.90;;;-0.99;53.13;95225.22;5008279;28;20473;-57
2022/01/22 00:53:21;;;;;;;4.57;3.10;;;-0.60;71.80;;;-1.00;53.21;95218.41;5008547;28;20517;-56
2022/01/22 00:55:49;;;;;;;6.73;3.80;;;-0.60;71.50;;;-1.01;53.73;95221.88;5009680;28;21037;-55
2022/01/22 00:58:17;;;;;;;4.00;3.20;;;-0.60;71.90;;;-1.04;53.37;95215.09;5008639;28;20453;-56
2022/01/22 01:00:45;;;;;;;4.10;2.70;;;-0.70;71.60;;;-1.05;53.69;95217.72;5008557;28;20479;-56
2022/01/22 01:03:12;;;;;;;6.50;3.00;;;-0.70;71.40;;;-1.07;53.47;95215.22;5008763;28;20461;-56
2022/01/22 01:05:39;;;;;;;6.10;3.20;;;-0.70;71.00;;;-1.10;53.17;95213.59;5009419;28;20469;-55
2022/01/22 01:08:07;;;;;;;5.43;2.80;;;-0.70;71.30;;;-1.11;53.19;95217.06;5008725;28;20461;-55
2022/01/22 01:10:34;;;;;;;6.63;3.27;;;-0.70;71.10;;;-1.11;53.26;95214.50;5009156;28;20952;-55
2022/01/22 01:13:01;;;;;;;5.67;3.30;;;-0.70;71.20;;;-1.11;53.37;95214.50;5008858;28;20501;-55
2022/01/22 01:15:40;;;;;;;4.20;2.73;;;-0.70;71.20;;;-1.11;52.89;95211.91;5009411;28;20477;-56
2022/01/22 01:32:16;;;;;;;3.10;2.27;;;-0.90;69.70;;;-1.28;52.58;95184.19;5008985;28;20460;-56
2022/01/22 01:34:45;;;;;;;3.63;2.30;;;-0.90;69.70;;;-1.30;52.55;95191.16;5011683;28;20441;-56
2022/01/22 01:37:14;;;;;;;2.40;2.20;;;-0.90;69.70;;;-1.31;53.05;95186.91;5005540;28;20552;-55
2022/01/22 01:39:43;;;;;;;4.23;2.80;;;-0.90;70.20;;;-1.31;52.43;95179.16;5004496;28;20478;-57
2022/01/22 01:42:15;;;;;;;7.60;2.33;;;-0.90;69.90;;;-1.33;52.55;95174.97;5008118;28;20555;-57
2022/01/22 01:44:42;;;;;;;6.33;2.47;;;-0.90;69.80;;;-1.35;52.12;95172.47;5004418;28;20453;-56
2022/01/22 01:47:14;;;;;;;3.53;2.10;;;-1.00;69.10;;;-1.37;52.31;95178.56;5008217;28;20539;-57
2022/01/22 01:49:41;;;;;;;6.70;3.23;;;-1.00;69.20;;;-1.41;52.46;95175.28;5008178;28;20488;-54
2022/01/22 01:52:13;;;;;;;3.00;2.67;;;-1.00;69.10;;;-1.45;52.59;95177.13;5008678;28;20926;-56
2022/01/22 01:54:48;;;;;;;6.37;2.60;;;-1.10;69.00;;;-1.49;52.14;95169.56;5010401;28;20450;-55
2022/01/22 01:57:31;;;;;;;5.97;2.73;;;-1.00;68.90;;;-1.55;52.43;95173.22;5007395;28;20468;-54
2022/01/22 01:59:59;;;;;;;3.97;2.80;;;-1.10;68.90;;;-1.59;52.13;95176.81;5008533;28;20442;-56
2022/01/22 02:02:30;;;;;;;4.40;1.97;;;-1.20;68.90;;;-1.63;52.32;95172.66;5007265;28;20515;-57
2022/01/22 02:04:57;;;;;;;4.13;2.40;;;-1.20;68.90;;;-1.65;52.01;95179.63;5008239;28;20453;-56
2022/01/22 02:07:24;;;;;;;4.10;2.07;;;-1.20;69.10;;;-1.68;52.41;95184.91;5006821;28;20461;-57
2022/01/22 02:09:52;;;;;;;6.50;2.67;;;-1.30;69.10;;;-1.68;52.21;95172.00;5012344;28;20540;-55
2022/01/22 02:12:37;;;;;;;3.67;2.67;;;-1.30;69.60;;;-1.66;52.95;95180.53;5007035;28;20473;-57
2022/01/22 02:23:35;;;;;;;6.80;1.97;;;-1.20;69.60;;;-1.55;52.50;95169.78;5008934;28;20449;-55
2022/01/22 02:26:03;;;;;;;6.43;1.87;;;-1.20;69.30;;;-1.54;52.60;95167.16;5007294;28;20532;-59
2022/01/22 02:28:31;;;;;;;5.77;2.50;;;-1.10;69.20;;;-1.52;52.19;95160.22;5009072;28;20462;-54
2022/01/22 02:31:06;;;;;;;3.20;2.17;;;-1.10;68.90;;;-1.51;52.21;95161.03;5010991;28;20473;-56
2022/01/22 02:33:46;;;;;;;3.43;2.80;;;-1.10;68.80;;;-1.53;52.32;95152.53;5010575;28;20508;-56
2022/01/22 02:36:19;;;;;;;3.67;2.10;;;-1.20;69.30;;;-1.55;51.73;95151.75;5010472;28;20992;-56
2022/01/22 02:38:53;;;;;;;4.23;2.17;;;-1.10;68.30;;;-1.60;52.13;95146.75;5012045;28;20446;-56
2022/01/22 02:41:23;;;;;;;3.03;2.53;;;-1.20;68.30;;;-1.66;51.08;95157.31;5011538;28;20461;-57
2022/01/22 02:43:52;;;;;;;3.43;2.70;;;-1.20;67.70;;;-1.72;51.63;95154.97;5010877;28;20847;-57
2022/01/22 02:46:21;;;;;;;8.67;4.10;;;-1.30;67.50;;;-1.77;51.09;95151.75;5010779;28;20504;-55
2022/01/22 02:48:48;;;;;;;5.87;3.50;;;-1.40;67.50;;;-1.82;51.49;95157.91;5011568;28;20545;-56
2022/01/22 02:51:16;;;;;;;7.03;3.30;;;-1.40;67.90;;;-1.85;51.72;95152.03;5011540;28;20473;-56
2022/01/22 02:53:43;;;;;;;6.27;2.97;;;-1.40;67.40;;;-1.91;51.74;95154.84;5011413;28;20497;-57
2022/01/22 02:56:12;;;;;;;6.43;2.50;;;-1.50;67.10;;;-1.96;51.59;95164.50;5008414;28;20477;-56
2022/01/22 02:58:39;;;;;;;1.70;1.60;;;-1.50;67.20;;;-2.00;51.15;95164.59;5011358;28;20462;-57
2022/01/22 03:01:06;;;;;;;3.50;2.00;;;-1.60;67.50;;;-2.03;51.09;95161.28;5010638;28;20478;-56
2022/01/22 03:03:34;;;;;;;4.30;2.00;;;-1.60;67.40;;;-2.07;51.25;95159.72;5011152;28;20544;-54
2022/01/22 03:06:01;;;;;;;4.67;2.20;;;-1.70;67.30;;;-2.10;51.52;95152.94;5009492;28;20473;-55
2022/01/22 03:08:31;;;;;;;2.03;1.63;;;-1.70;67.80;;;-2.11;51.06;95151.25;5010922;28;20965;-56
2022/01/22 03:11:00;;;;;;;5.00;2.47;;;-1.70;67.20;;;-2.13;50.91;95147.06;5011293;28;20554;-55
2022/01/22 03:16:32;;;;;;;3.93;2.20;;;-1.80;66.90;;;-2.26;50.75;95139.78;5010600;28;20480;-55
2022/01/22 03:19:05;;;;;;;4.43;2.00;;;-1.80;67.00;;;-2.31;50.95;95133.94;5010017;28;20805;-56
2022/01/22 03:21:40;;;;;;;2.37;2.17;;;-1.90;66.90;;;-2.34;51.03;95131.47;5007118;28;20477;-57
2022/01/22 03:29:40;;;;;;;6.23;2.40;;;-2.00;67.30;;;-2.37;51.69;95123.88;5006086;28;20589;-56
2022/01/22 03:32:09;;;;;;;1.77;1.67;;;-2.00;67.30;;;-2.37;51.38;95111.00;5008325;28;20462;-56
2022/01/22 03:34:42;;;;;;;2.60;1.90;;;-2.00;66.90;;;-2.39;52.16;95120.50;5009547;28;20485;-57
2022/01/22 03:37:09;;;;;;;2.20;1.53;;;-2.00;67.10;;;-2.41;51.55;95112.84;5008026;28;20470;-55
2022/01/22 03:39:37;;;;;;;3.10;2.07;;;-2.00;67.10;;;-2.42;51.56;95105.19;5010523;28;20462;-57
2022/01/22 03:42:04;;;;;;;3.77;2.50;;;-2.00;66.90;;;-2.46;51.61;95101.03;5009353;28;21006;-55
2022/01/22 03:44:32;;;;;;;6.60;2.20;;;-2.00;66.70;;;-2.50;51.64;95102.03;5010185;28;20851;-55
2022/01/22 03:47:00;;;;;;;2.63;2.13;;;-2.10;66.50;;;-2.55;50.73;95100.47;5010397;28;20481;-57
2022/01/22 03:49:28;;;;;;;6.23;2.80;;;-2.10;66.70;;;-2.57;51.11;95102.28;5010293;28;20815;-56
2022/01/22 03:51:55;;;;;;;3.93;2.07;;;-2.10;67.00;;;-2.59;50.64;95106.59;5010324;28;20851;-56
2022/01/22 03:54:22;;;;;;;6.43;2.97;;;-2.20;66.80;;;-2.61;51.23;95103.25;5011619;28;21064;-56
2022/01/22 03:56:51;;;;;;;3.33;2.40;;;-2.10;67.00;;;-2.60;51.61;95104.09;5008660;28;20469;-56
2022/01/22 03:59:18;;;;;;;6.13;2.43;;;-2.10;67.20;;;-2.58;51.80;95099.75;5010480;28;20453;-55
2022/01/22 04:04:32;;;;;;;7.30;3.40;;;-2.10;68.00;;;-2.54;51.69;95107.31;5010564;28;21031;-57
2022/01/22 04:07:32;;;;;;;1.80;1.63;;;-2.10;67.50;;;-2.53;51.29;95103.81;5008981;28;20466;-57
2022/01/22 04:10:02;;;;;;;3.93;2.67;;;-2.10;67.50;;;-2.48;51.57;95102.81;5010694;28;20454;-57
2022/01/22 04:12:37;;;;;;;5.53;2.30;;;-2.10;67.20;;;-2.49;51.16;95107.16;5008966;28;20498;-56
2022/01/22 04:15:06;;;;;;;3.00;1.80;;;-2.10;67.80;;;-2.49;51.72;95108.84;5008124;28;20547;-55
2022/01/22 04:26:13;;;;;;;5.40;3.30;;;-2.00;68.10;;;-2.41;51.72;95112.03;4934909;29;20464;-57
2022/01/22 04:28:40;;;;;;;4.00;3.20;;;-2.00;68.10;;;-2.36;51.88;95104.94;4993801;28;20460;-56
2022/01/22 04:31:07;;;;;;;11.30;3.00;;;-1.90;68.20;;;-2.34;51.97;95103.16;5009848;28;20512;-55
2022/01/22 04:33:35;;;;;;;6.60;2.63;;;-1.90;68.40;;;-2.32;52.22;95101.38;5009745;28;20501;-57
2022/01/22 04:36:04;;;;;;;4.67;3.43;;;-1.90;68.40;;;-2.28;51.73;95097.78;5011479;28;20885;-56
2022/01/22 04:38:31;;;;;;;4.97;3.37;;;-1.90;68.60;;;-2.26;51.38;95101.16;5011234;28;20473;-56
2022/01/22 04:41:00;;;;;;;2.27;2.00;;;-1.80;68.40;;;-2.22;51.94;95094.13;5008302;28;20485;-57
2022/01/22 04:43:30;;;;;;;3.27;2.90;;;-1.80;68.80;;;-2.20;51.64;95100.06;5009634;28;20511;-55
2022/01/22 04:46:08;;;;;;;8.93;2.40;;;-1.80;68.80;;;-2.21;51.84;95109.53;5009042;28;20505;-56
2022/01/22 04:56:59;;;;;;;8.43;3.00;;;-1.90;67.80;;;-2.41;51.50;95088.84;5052832;28;20443;-56
2022/01/22 04:59:27;;;;;;;2.63;2.40;;;-2.00;68.00;;;-2.45;53.06;95074.38;5058946;28;20779;-56
2022/01/22 05:01:54;;;;;;;6.93;2.33;;;-2.00;68.60;;;-2.48;51.90;95079.66;5054782;28;20916;-56
2022/01/22 05:04:21;;;;;;;12.33;2.73;;;-2.00;68.50;;;-2.50;52.76;95081.44;5057545;28;21035;-56
2022/01/22 05:06:50;;;;;;;4.33;3.23;;;-2.10;69.00;;;-2.55;52.52;95085.00;5055787;28;21084;-56
2022/01/22 05:09:17;;;;;;;4.80;3.13;;;-2.10;69.30;;;-2.56;52.83;95083.31;5054943;28;20452;-57
2022/01/22 05:11:44;;;;;;;6.27;3.20;;;-2.10;69.80;;;-2.57;52.86;95088.53;5053690;28;20479;-57
2022/01/22 05:14:12;;;;;;;4.20;2.07;;;-2.10;69.90;;;-2.57;52.95;95079.09;5050784;28;20459;-56
2022/01/22 05:16:40;;;;;;;2.63;2.40;;;-2.10;70.30;;;-2.52;53.55;95072.03;5054196;28;20471;-57
2022/01/22 05:19:12;;;;;;;3.00;2.80;;;-2.10;70.70;;;-2.48;53.73;95072.75;5055839;28;20471;-56
2022/01/22 05:21:42;;;;;;;3.60;2.73;;;-2.00;71.20;;;-2.43;53.61;95073.44;5053769;28;20499;-56
2022/01/22 05:24:15;;;;;;;12.60;3.03;;;-2.00;71.20;;;-2.38;53.31;95075.84;5057260;28;20475;-58
2022/01/22 05:27:10;;;;;;;3.67;2.73;;;-1.90;71.30;;;-2.36;54.51;95074.88;5055232;28;20475;-56
2022/01/22 05:32:35;;;;;;;2.90;2.57;;;-1.90;71.80;;;-2.30;53.83;95078.13;5054447;28;20531;-56
2022/01/22 05:37:46;;;;;;;10.50;3.57;;;-1.80;71.40;;;-2.29;53.41;95072.06;5055630;28;20427;-58
2022/01/22 05:40:15;;;;;;;11.80;4.03;;;-1.90;71.30;;;-2.28;53.51;95082.31;5051118;28;20452;-57
2022/01/22 05:42:43;;;;;;;4.70;2.97;;;-1.80;71.50;;;-2.24;53.66;95077.91;5057211;28;20452;-56
2022/01/22 05:45:11;;;;;;;5.00;3.20;;;-1.80;71.70;;;-2.22;54.14;95076.09;5053135;28;20444;-57
2022/01/22 05:47:38;;;;;;;8.60;3.27;;;-1.80;71.70;;;-2.21;53.39;95082.94;5053440;28;20995;-57
2022/01/22 05:50:12;;;;;;;4.20;2.57;;;-1.80;71.40;;;-2.19;53.90;95081.97;5056601;28;21019;-57
2022/01/22 05:52:51;;;;;;;8.27;3.77;;;-1.80;71.40;;;-2.21;54.03;95070.06;5053295;28;20440;-57
2022/01/22 06:00:52;;;;;;;9.70;3.23;;;-1.90;71.30;;;-2.29;54.34;95067.78;5053172;28;20477;-56
2022/01/22 06:03:19;;;;;;;5.83;3.30;;;-1.90;72.20;;;-2.28;54.44;95068.59;5035476;28;20564;-57
2022/01/22 06:05:47;;;;;;;2.40;2.20;;;-1.90;72.30;;;-2.26;54.46;95075.38;5040730;28;20490;-57
2022/01/22 06:08:16;;;;;;;5.10;2.70;;;-1.80;73.30;;;-2.22;54.38;95066.63;5041923;28;20456;-57
2022/01/22 06:10:53;;;;;;;3.27;2.97;;;-1.80;73.40;;;-2.17;54.56;95062.16;5044393;28;20495;-57
2022/01/22 06:13:29;;;;;;;2.63;2.43;;;-1.80;73.00;;;-2.10;54.33;95069.66;5042365;28;20823;-56
2022/01/22 06:15:56;;;;;;;2.50;2.30;;;-1.70;73.70;;;-2.06;54.54;95055.72;5043021;28;20479;-57
2022/01/22 06:18:24;;;;;;;6.10;3.80;;;-1.60;73.50;;;-2.03;55.07;95063.34;5038734;28;20453;-57
2022/01/22 06:20:51;;;;;;;7.13;4.30;;;-1.60;73.70;;;-2.02;54.43;95065.88;5040489;28;20479;-56
2022/01/22 06:23:18;;;;;;;10.60;3.90;;;-1.60;73.20;;;-1.98;54.82;95057.13;5041656;28;20470;-57
2022/01/22 06:25:47;;;;;;;3.97;3.20;;;-1.60;73.00;;;-1.94;54.35;95059.59;5044760;28;21114;-57
2022/01/22 06:28:14;;;;;;;5.50;4.10;;;-1.60;73.10;;;-1.92;55.14;95061.22;5044471;28;20542;-56
2022/01/22 06:30:44;;;;;;;7.10;4.33;;;-1.50;73.30;;;-1.90;55.41;95067.13;5040731;28;20495;-58
2022/01/22 06:33:11;;;;;;;9.60;4.10;;;-1.50;73.70;;;-1.89;55.04;95066.25;5038471;28;20972;-56
2022/01/22 06:35:38;;;;;;;5.80;4.03;;;-1.40;73.10;;;-1.84;54.99;95059.16;5041544;28;20477;-56
2022/01/22 06:38:08;;;;;;;4.03;3.30;;;-1.40;73.10;;;-1.80;54.17;95054.72;5041958;28;20456;-56
2022/01/22 06:43:21;;;;;;;8.30;3.13;;;-1.40;71.80;;;-1.73;53.69;95037.28;5041772;28;20948;-57
2022/01/22 06:45:49;;;;;;;6.07;2.70;;;-1.30;71.90;;;-1.67;53.38;95034.47;5041414;28;20480;-57
2022/01/22 06:48:16;;;;;;;4.60;3.57;;;-1.30;71.90;;;-1.60;53.93;95032.47;5036201;28;20456;-57
2022/01/22 06:50:43;;;;;;;10.83;4.10;;;-1.20;71.80;;;-1.51;53.64;95040.66;5036286;28;20996;-57
2022/01/22 06:53:11;;;;;;;6.67;3.13;;;-1.10;71.90;;;-1.41;53.28;95030.81;5037938;28;20448;-57
2022/01/22 06:55:42;;;;;;;8.43;3.37;;;-1.00;72.20;;;-1.30;53.19;95026.03;5036277;28;20468;-58
2022/01/22 06:58:09;;;;;;;5.07;3.00;;;-0.90;71.30;;;-1.22;53.08;95032.59;5039995;28;21029;-58
2022/01/22 07:00:38;;;;;;;5.53;3.10;;;-0.90;70.80;;;-1.16;52.57;95032.34;5040355;28;20483;-57
2022/01/22 07:03:05;;;;;;;3.07;2.33;;;-0.80;70.50;;;-1.10;52.48;95027.78;5036634;28;20444;-56
2022/01/22 07:05:34;;;;;;;4.53;3.03;;;-0.70;70.40;;;-1.02;53.14;95022.28;5044922;28;20832;-56
2022/01/22 07:08:01;;;;;;;7.73;2.20;;;-0.70;70.40;;;-0.93;52.55;95010.69;5036342;28;20460;-57
2022/01/22 07:10:28;;;;;;;2.33;2.23;;;-0.60;70.10;;;-0.68;52.68;95023.38;5038874;28;20997;-56
2022/01/22 07:12:56;;;;;;;2.60;1.87;;;-0.30;71.60;;;-0.30;52.37;95025.13;5037101;28;20455;-57
2022/01/22 07:15:23;;;;;;;4.73;2.47;;;0.00;70.50;;;0.28;52.33;95030.16;5037840;28;20469;-57
2022/01/22 07:17:54;;;;;;;19.67;3.20;;;0.60;70.60;;;1.11;51.50;95030.38;5038131;28;20978;-57
2022/01/22 07:20:28;;;;;;;4.07;3.30;;;1.50;70.40;;;2.05;49.76;95024.59;5040057;28;20580;-57
2022/01/22 07:23:01;;;;;;;5.00;2.60;;;2.40;68.10;;;3.01;48.97;95025.19;5038090;28;20952;-57
2022/01/22 07:25:29;;;;;;;3.53;1.87;;;3.40;66.50;;;3.86;47.92;95012.31;5040967;28;20874;-58
2022/01/22 07:27:56;;;;;;;3.70;2.60;;;4.30;64.80;;;4.59;46.35;95025.00;5036199;28;20443;-57
2022/01/22 07:30:25;;;;;;;2.57;2.37;;;5.10;61.60;;;5.07;46.24;95008.84;5035738;28;20514;-57
2022/01/22 07:32:54;;;;;;;4.00;2.70;;;5.60;60.40;;;5.31;44.05;95013.31;5031836;28;20488;-58
2022/01/22 07:35:21;;;;;;;5.03;2.90;;;5.90;57.30;;;5.30;44.00;95009.03;5034867;28;20484;-58
2022/01/22 07:37:49;;;;;;;2.40;2.20;;;5.90;56.60;;;5.02;43.67;95001.31;5038536;28;20463;-58
2022/01/22 07:40:17;;;;;;;3.50;2.60;;;5.60;55.60;;;4.67;44.32;94998.44;5041908;28;20472;-57
2022/01/22 07:42:44;;;;;;;2.97;2.30;;;5.30;55.40;;;4.40;44.23;95003.66;5038871;28;20467;-56
2022/01/22 07:45:11;;;;;;;3.00;2.20;;;4.90;55.70;;;4.24;44.44;94994.25;5033947;28;20506;-57
2022/01/22 07:47:39;;;;;;;4.40;2.17;;;4.70;56.10;;;4.21;44.65;94994.44;5041697;28;20538;-57
2022/01/22 07:50:09;;;;;;;6.53;2.77;;;4.60;56.30;;;4.17;45.14;94995.59;5035968;28;20465;-58
2022/01/22 07:52:37;;;;;;;3.90;2.70;;;4.50;56.60;;;4.04;44.56;94992.06;5037501;28;20478;-57
2022/01/22 07:55:06;;;;;;;3.47;3.17;;;4.40;56.50;;;3.82;44.37;94988.22;5040319;28;20456;-56
2022/01/22 07:57:34;;;;;;;9.13;3.50;;;4.20;55.40;;;3.75;44.93;94998.19;5033942;28;20452;-57
2022/01/22 08:00:01;;;;;;;6.00;4.10;;;4.10;55.50;;;3.96;44.60;95000.38;5036048;28;20445;-57
2022/01/22 08:02:28;;;;;;;3.27;2.93;;;4.20;56.50;;;4.29;44.97;95001.75;5032230;28;20476;-56
2022/01/22 08:04:56;;;;;;;6.00;2.80;;;4.40;57.00;;;4.77;44.06;94996.91;5035360;28;20445;-55
2022/01/22 08:07:24;;;;;;;3.77;2.60;;;4.80;56.90;;;5.33;43.88;95001.84;5041671;28;20453;-56
2022/01/22 08:09:52;;;;;;;3.93;3.53;;;5.30;56.80;;;5.87;43.17;94987.69;5038469;28;20514;-57
2022/01/22 08:12:19;;;;;;;2.30;2.20;;;5.80;56.20;;;6.31;42.09;94985.50;5037895;28;20566;-58
2022/01/22 08:14:47;;;;;;;6.23;2.80;;;6.30;55.10;;;6.79;41.81;94980.22;5040360;28;20460;-56
2022/01/22 08:17:14;;;;;;;4.07;2.07;;;6.70;53.90;;;7.28;40.80;94985.31;5038880;28;20487;-56
2022/01/22 08:19:41;;;;;;;3.73;2.83;;;7.10;53.40;;;7.80;40.48;94980.47;5036601;28;20453;-57
2022/01/22 08:22:09;;;;;;;3.27;2.97;;;7.60;52.60;;;8.30;39.96;94977.41;5037108;28;20567;-57
2022/01/22 08:24:38;;;;;;;4.73;3.17;;;8.10;51.50;;;8.74;39.09;94970.38;5038390;28;20778;-57
2022/01/22 08:27:13;;;;;;;3.53;2.10;;;8.60;50.90;;;9.15;38.59;94971.34;5037498;28;21118;-56
2022/01/22 08:29:41;;;;;;;5.20;2.10;;;9.00;50.50;;;9.54;38.28;94968.94;5037039;28;20495;-57
2022/01/22 08:32:26;;;;;;;2.20;2.10;;;9.40;49.30;;;9.86;37.11;94968.78;5034206;28;20518;-57
2022/01/22 08:37:39;;;;;;;4.10;2.03;;;10.00;46.90;;;10.59;37.07;94975.63;5039174;28;20450;-57
2022/01/22 08:40:10;;;;;;;7.83;2.10;;;10.40;46.50;;;10.88;34.50;94972.16;5042350;28;20461;-58
2022/01/22 08:42:38;;;;;;;5.07;1.60;;;10.70;43.80;;;11.08;35.68;94971.19;5037975;28;20455;-58
2022/01/22 08:45:06;;;;;;;2.37;1.97;;;10.90;44.20;;;11.27;35.32;94969.50;5038028;28;20993;-57
2022/01/22 08:47:33;;;;;;;2.80;2.60;;;11.10;43.70;;;11.40;34.64;94974.44;5035540;28;20452;-59
2022/01/22 08:50:01;;;;;;;2.33;1.97;;;11.20;42.60;;;11.53;34.78;94968.88;5037084;28;20485;-57
2022/01/22 08:52:32;;;;;;;2.60;2.40;;;11.40;43.30;;;11.59;34.22;94963.03;5034983;28;20495;-56
2022/01/22 08:54:59;;;;;;;3.67;2.27;;;11.50;41.50;;;11.72;33.46;94965.34;5034487;28;20440;-58
2022/01/22 08:57:28;;;;;;;3.00;2.63;;;11.60;41.30;;;11.86;32.15;94964.06;5036878;28;20475;-57
2022/01/22 08:59:55;;;;;;;3.00;2.00;;;11.60;40.50;;;11.97;33.96;94979.69;5035576;28;20455;-58
2022/01/22 09:02:23;;;;;;;2.10;1.93;;;11.80;41.40;;;12.04;33.36;94964.97;5035674;28;20811;-59
2022/01/22 09:04:51;;;;;;;3.60;2.57;;;11.90;41.10;;;12.00;33.41;94961.78;5036948;28;20467;-58
2022/01/22 09:07:19;;;;;;;4.50;2.17;;;11.90;41.10;;;11.96;32.75;94978.03;5041152;28;21031;-58
2022/01/22 09:09:48;;;;;;;3.57;2.00;;;11.90;40.50;;;12.03;33.02;94971.22;5038531;28;20841;-58
2022/01/22 09:12:16;;;;;;;2.33;2.10;;;11.90;40.40;;;12.22;32.80;94977.34;5034718;28;21055;-58
2022/01/22 09:14:45;;;;;;;3.40;2.37;;;12.00;40.10;;;12.39;32.04;94979.19;5036091;28;20531;-58
2022/01/22 09:17:13;;;;;;;2.17;2.07;;;12.10;39.40;;;12.48;31.55;94975.66;5039632;28;20468;-57
2022/01/22 09:19:41;;;;;;;2.70;2.50;;;12.20;38.30;;;12.58;30.71;94969.50;5037045;28;20449;-57
2022/01/22 09:22:08;;;;;;;3.77;2.47;;;12.30;37.60;;;12.68;31.84;94971.09;5040162;28;20483;-58
2022/01/22 09:24:36;;;;;;;4.67;2.50;;;12.40;39.30;;;12.78;31.33;94965.75;5035874;28;20461;-58
2022/01/22 09:27:05;;;;;;;2.03;1.80;;;12.50;38.80;;;12.94;31.26;94959.78;5034924;28;20479;-58
2022/01/22 09:29:34;;;;;;;3.00;2.60;;;12.70;38.60;;;13.13;31.58;94961.41;5036697;28;21011;-56
2022/01/22 09:32:03;;;;;;;2.70;2.00;;;12.90;39.10;;;13.31;30.66;94955.25;5038565;28;21041;-59
2022/01/22 09:34:31;;;;;;;2.67;2.47;;;13.00;37.80;;;13.38;30.64;94951.06;5035678;28;20486;-57
2022/01/22 09:36:58;;;;;;;5.37;2.13;;;13.20;37.70;;;13.44;30.95;94945.16;5037797;28;20852;-58
2022/01/22 09:39:25;;;;;;;3.07;2.20;;;13.20;38.00;;;13.40;30.29;94936.72;5042444;28;20446;-57
2022/01/22 09:41:53;;;;;;;3.83;1.83;;;13.20;36.90;;;13.37;30.21;94928.25;5040617;28;21132;-57
2022/01/22 09:44:21;;;;;;;2.33;2.23;;;13.10;36.50;;;13.41;29.79;94926.97;5031019;28;20452;-58
2022/01/22 09:46:49;;;;;;;3.23;2.50;;;13.20;36.60;;;13.48;29.91;94924.53;5038313;28;20537;-58
2022/01/22 09:49:17;;;;;;;2.93;2.73;;;13.20;36.40;;;13.60;29.87;94912.69;5043698;28;20972;-58
2022/01/22 09:51:45;;;;;;;5.40;3.17;;;13.30;36.90;;;13.64;29.72;94903.47;5039020;28;21115;-58
2022/01/22 09:54:13;;;;;;;5.20;2.60;;;13.40;36.00;;;13.63;29.08;94896.53;5040747;28;20468;-58
2022/01/22 09:56:44;;;;;;;2.30;2.03;;;13.40;36.20;;;13.56;29.36;94906.09;5041302;28;20941;-58
2022/01/22 09:59:11;;;;;;;2.33;2.10;;;13.40;35.30;;;13.64;28.90;94892.91;5037841;28;20443;-58
2022/01/22 10:01:39;;;;;;;3.07;2.60;;;13.40;35.30;;;13.66;29.41;94896.22;5036697;28;20480;-57
2022/01/22 10:04:08;;;;;;;6.50;3.17;;;13.40;35.40;;;13.73;29.51;94901.72;5039484;28;20454;-57
2022/01/22 10:06:49;;;;;;;6.00;2.43;;;13.50;35.40;;;13.79;28.91;94903.72;5036359;28;20468;-58
2022/01/22 10:09:26;;;;;;;4.20;2.40;;;13.50;35.40;;;13.88;28.58;94894.84;5037281;28;20471;-58
2022/01/22 10:12:08;;;;;;;5.23;2.13;;;13.60;35.00;;;13.96;28.64;94894.84;5040152;28;20490;-57
2022/01/22 10:14:35;;;;;;;7.07;2.83;;;13.70;35.00;;;14.15;29.36;94901.69;5039204;28;20528;-57
2022/01/22 10:17:03;;;;;;;3.00;1.50;;;13.80;36.10;;;14.40;29.09;94898.28;5040141;28;20483;-57
2022/01/22 10:19:31;;;;;;;2.30;1.80;;;14.00;35.50;;;14.52;28.46;94886.38;5042572;28;20870;-59
2022/01/22 10:22:01;;;;;;;2.37;2.17;;;14.10;35.00;;;14.63;28.52;94883.44;5037820;28;20486;-62
2022/01/22 10:24:38;;;;;;;3.87;2.70;;;14.30;35.00;;;14.84;28.99;94876.81;5038323;28;20464;-57
2022/01/22 10:27:31;;;;;;;4.23;2.13;;;14.50;36.00;;;15.06;27.82;94878.81;5040111;28;20475;-57
2022/01/22 10:30:01;;;;;;;5.83;4.93;;;14.70;34.50;;;15.20;28.51;94872.00;5037131;28;20437;-58
2022/01/22 10:32:39;;;;;;;5.47;3.60;;;14.90;34.70;;;15.30;27.42;94863.84;5032249;28;20488;-57
2022/01/22 10:35:09;;;;;;;4.13;2.87;;;15.00;33.30;;;15.41;26.89;94866.16;5041957;28;20511;-57
2022/01/22 10:37:37;;;;;;;4.30;2.97;;;15.20;33.20;;;15.50;27.19;94871.44;5042990;28;20502;-57
2022/01/22 10:40:23;;;;;;;2.20;1.83;;;15.20;33.00;;;15.62;26.25;94848.88;5035478;28;20967;-58
2022/01/22 10:42:51;;;;;;;1.93;1.83;;;15.30;32.60;;;15.76;26.79;94847.31;5037532;28;20457;-58
2022/01/22 10:45:27;;;;;;;2.67;1.67;;;15.50;32.70;;;15.84;26.59;94841.19;5034613;28;20476;-59
2022/01/22 10:48:16;;;;;;;4.60;2.10;;;15.60;32.10;;;15.90;25.10;94845.81;5039232;28;21154;-59
2022/01/22 10:50:43;;;;;;;2.17;2.07;;;15.70;31.50;;;16.01;26.63;94845.41;5039135;28;20644;-58
2022/01/22 10:53:12;;;;;;;2.43;2.23;;;15.80;32.00;;;16.07;25.44;94844.72;5035173;28;20980;-58
2022/01/22 10:56:02;;;;;;;2.97;1.70;;;15.80;30.60;;;15.90;25.37;94843.16;5036998;28;20592;-56
2022/01/22 10:58:30;;;;;;;5.47;3.30;;;15.70;30.60;;;15.37;26.31;94848.13;5041570;28;20452;-58
2022/01/22 11:01:02;;;;;;;2.30;1.73;;;15.30;31.00;;;14.60;26.25;94841.44;5039991;28;20471;-58
2022/01/22 11:03:29;;;;;;;1.80;1.60;;;14.80;30.50;;;13.88;26.28;94846.41;5040143;28;20456;-58
2022/01/22 11:05:58;;;;;;;1.50;1.40;;;14.10;30.20;;;13.08;26.81;94839.59;5041767;28;20583;-57
2022/01/22 11:08:28;;;;;;;2.93;2.20;;;13.50;30.90;;;12.33;28.13;94834.72;5038522;28;20459;-58
2022/01/22 11:10:56;;;;;;;1.80;1.70;;;12.70;31.90;;;11.71;28.36;94829.31;5038097;28;20480;-58
2022/01/22 11:13:23;;;;;;;4.13;2.13;;;12.10;32.40;;;11.22;28.53;94829.56;5041075;28;20471;-59
2022/01/22 11:15:51;;;;;;;6.03;1.90;;;11.60;33.10;;;10.73;28.84;94835.78;5032421;28;20480;-59
2022/01/22 11:18:19;;;;;;;2.07;1.63;;;11.10;32.60;;;10.44;29.37;94832.38;5038508;28;20502;-59
2022/01/22 11:20:46;;;;;;;4.37;1.80;;;10.70;33.80;;;10.24;29.98;94827.09;5039168;28;20468;-57
2022/01/22 11:23:15;;;;;;;2.67;1.83;;;10.50;34.40;;;10.08;30.54;94818.94;5038568;28;20499;-58
2022/01/22 11:25:44;;;;;;;2.80;1.53;;;10.30;35.10;;;9.82;29.98;94820.31;5037034;28;21007;-57
2022/01/22 11:28:11;;;;;;;2.30;2.10;;;10.00;34.90;;;9.51;30.67;94827.41;5038614;28;20536;-57
2022/01/22 11:30:39;;;;;;;1.97;1.80;;;9.80;36.10;;;9.13;30.75;94819.28;5038915;28;20468;-57
2022/01/22 11:33:09;;;;;;;7.73;6.47;;;9.40;36.50;;;8.79;31.18;94810.84;5035196;28;20488;-57
2022/01/22 11:35:55;;;;;;;3.33;2.30;;;9.10;37.00;;;8.37;31.54;94816.94;5035407;28;20484;-57
2022/01/22 11:38:28;;;;;;;2.47;2.23;;;8.70;37.10;;;7.93;32.46;94807.47;5034831;28;20525;-57
2022/01/22 11:41:07;;;;;;;2.73;2.53;;;8.30;37.30;;;7.52;32.01;94809.88;5040126;28;20491;-57